To NAV CANADA Home Page Login to a new session Search on AWWS site Feedback and Comments Disclaimer Vers la page française équivalente Tips FAQ What's new on the site To the Forecasts and Observations / NOTAM section To "File a Flight Plan" website Publications and other links Update of the User's profile FIC Telephone Numbers My Weather Data Folder Route Weather Data Regional Weather Data Local Weather Data To the Forecasts and Observations / NOTAM section
Request Generated 12/04/2016 at 22:19:36 UTC . Weather information available at that time is displayed.

METAR/TAF

If you find any discrepancies between the coded METAR/TAF and the plain language METAR/TAF please use the coded METAR/TAF. LWIS bulletins are not decoded in plain language.

CALGARY/SPRINGBANK/AB    (show WxCam)

METAR CYBW 042200Z AUTO 34004KT 9SM OVC065 M06/M08 A2962 RMK SLP097=
METAR
LOCATION
CYBW - CALGARY/SPRINGBANK/AB
DATE - TIME
04 DECEMBER 2016 - 2200 UTC
WIND
340 TRUE @ 4  KNOTS
VISIBILITY
9 STAT.  MILES
RUNWAY VISUAL RANGE
WEATHER
CLOUDINESS
OVERCAST 6500  FT
TEMP / DEWPOINT
-6 C / -8 C
ALTIMETER
29.62 IN HG
RECENT WEATHER
WIND SHEAR

SPECI CYBW 042136Z AUTO 36008KT 9SM BKN028 BKN040 BKN049 OVC060 M05/M08 A2962 RMK SLP093=
SPECI
LOCATION
CYBW - CALGARY/SPRINGBANK/AB
DATE - TIME
04 DECEMBER 2016 - 2136 UTC
WIND
360 TRUE @ 8  KNOTS
VISIBILITY
9 STAT.  MILES
RUNWAY VISUAL RANGE
WEATHER
CLOUDINESS
BROKEN CLOUDS (5/8 - 7/8) 2800  FT
BROKEN CLOUDS (5/8 - 7/8) 4000  FT
BROKEN CLOUDS (5/8 - 7/8) 4900  FT
OVERCAST 6000  FT
TEMP / DEWPOINT
-5 C / -8 C
ALTIMETER
29.62 IN HG
RECENT WEATHER
WIND SHEAR

SPECI CYBW 042131Z AUTO 36009KT 9SM -SN BKN026 BKN034 BKN047 OVC060 M06/M08 A2961 RMK SLP092=
SPECI
LOCATION
CYBW - CALGARY/SPRINGBANK/AB
DATE - TIME
04 DECEMBER 2016 - 2131 UTC
WIND
360 TRUE @ 9  KNOTS
VISIBILITY
9 STAT.  MILES
RUNWAY VISUAL RANGE
WEATHER
LIGHT SNOW
CLOUDINESS
BROKEN CLOUDS (5/8 - 7/8) 2600  FT
BROKEN CLOUDS (5/8 - 7/8) 3400  FT
BROKEN CLOUDS (5/8 - 7/8) 4700  FT
OVERCAST 6000  FT
TEMP / DEWPOINT
-6 C / -8 C
ALTIMETER
29.61 IN HG
RECENT WEATHER
WIND SHEAR

SPECI CYBW 042128Z AUTO 01008KT 6SM -SN FEW008 BKN023 BKN030 OVC050 M06/M08 A2961 RMK SLP092=
SPECI
LOCATION
CYBW - CALGARY/SPRINGBANK/AB
DATE - TIME
04 DECEMBER 2016 - 2128 UTC
WIND
10 TRUE @ 8  KNOTS
VISIBILITY
6 STAT.  MILES
RUNWAY VISUAL RANGE
WEATHER
LIGHT SNOW
CLOUDINESS
FEW CLOUDS (1/8 - 2/8) 800  FT
BROKEN CLOUDS (5/8 - 7/8) 2300  FT
BROKEN CLOUDS (5/8 - 7/8) 3000  FT
OVERCAST 5000  FT
TEMP / DEWPOINT
-6 C / -8 C
ALTIMETER
29.61 IN HG
RECENT WEATHER
WIND SHEAR

SPECI CYBW 042126Z AUTO 01008KT 4SM -SN FEW008 BKN023 OVC033 M05/M07 A2961 RMK SLP092=
SPECI
LOCATION
CYBW - CALGARY/SPRINGBANK/AB
DATE - TIME
04 DECEMBER 2016 - 2126 UTC
WIND
10 TRUE @ 8  KNOTS
VISIBILITY
4 STAT.  MILES
RUNWAY VISUAL RANGE
WEATHER
LIGHT SNOW
CLOUDINESS
FEW CLOUDS (1/8 - 2/8) 800  FT
BROKEN CLOUDS (5/8 - 7/8) 2300  FT
OVERCAST 3300  FT
TEMP / DEWPOINT
-5 C / -7 C
ALTIMETER
29.61 IN HG
RECENT WEATHER
WIND SHEAR

SPECI CYBW 042123Z AUTO 01007KT 1SM R35/3000VP6000FT/ -SN FEW008 BKN020 OVC033 M05/M06 A2961 RMK SLP092=
SPECI
LOCATION
CYBW - CALGARY/SPRINGBANK/AB
DATE - TIME
04 DECEMBER 2016 - 2123 UTC
WIND
10 TRUE @ 7  KNOTS
VISIBILITY
1 STAT.  MILE
RUNWAY VISUAL RANGE
RUNWAY 35
MIN RANGE 3000  FT
MAX RANGE 6000 +  FT
WEATHER
LIGHT SNOW
CLOUDINESS
FEW CLOUDS (1/8 - 2/8) 800  FT
BROKEN CLOUDS (5/8 - 7/8) 2000  FT
OVERCAST 3300  FT
TEMP / DEWPOINT
-5 C / -6 C
ALTIMETER
29.61 IN HG
RECENT WEATHER
WIND SHEAR

SPECI CYBW 042112Z AUTO 36007KT 3/4SM R35/4000VP6000FT/ -SN BKN019 BKN031 OVC040 M05/M06 A2961 RMK SLP092=
SPECI
LOCATION
CYBW - CALGARY/SPRINGBANK/AB
DATE - TIME
04 DECEMBER 2016 - 2112 UTC
WIND
360 TRUE @ 7  KNOTS
VISIBILITY
3/4 STAT.  MILE
RUNWAY VISUAL RANGE
RUNWAY 35
MIN RANGE 4000  FT
MAX RANGE 6000 +  FT
WEATHER
LIGHT SNOW
CLOUDINESS
BROKEN CLOUDS (5/8 - 7/8) 1900  FT
BROKEN CLOUDS (5/8 - 7/8) 3100  FT
OVERCAST 4000  FT
TEMP / DEWPOINT
-5 C / -6 C
ALTIMETER
29.61 IN HG
RECENT WEATHER
WIND SHEAR

SPECI CYBW 042107Z AUTO 36006KT 1 1/4SM -SN BKN023 BKN034 OVC046 M05/M06 A2961 RMK SLP091=
SPECI
LOCATION
CYBW - CALGARY/SPRINGBANK/AB
DATE - TIME
04 DECEMBER 2016 - 2107 UTC
WIND
360 TRUE @ 6  KNOTS
VISIBILITY
1 1/4 STAT.  MILES
RUNWAY VISUAL RANGE
WEATHER
LIGHT SNOW
CLOUDINESS
BROKEN CLOUDS (5/8 - 7/8) 2300  FT
BROKEN CLOUDS (5/8 - 7/8) 3400  FT
OVERCAST 4600  FT
TEMP / DEWPOINT
-5 C / -6 C
ALTIMETER
29.61 IN HG
RECENT WEATHER
WIND SHEAR

METAR CYBW 042100Z AUTO 35008KT 2 1/2SM -SN BKN035 OVC047 M05/M06 A2961 RMK SLP090=
METAR
LOCATION
CYBW - CALGARY/SPRINGBANK/AB
DATE - TIME
04 DECEMBER 2016 - 2100 UTC
WIND
350 TRUE @ 8  KNOTS
VISIBILITY
2 1/2 STAT.  MILES
RUNWAY VISUAL RANGE
WEATHER
LIGHT SNOW
CLOUDINESS
BROKEN CLOUDS (5/8 - 7/8) 3500  FT
OVERCAST 4700  FT
TEMP / DEWPOINT
-5 C / -6 C
ALTIMETER
29.61 IN HG
RECENT WEATHER
WIND SHEAR

SPECI CYBW 042059Z AUTO 35007KT 2 1/2SM -SN BKN035 OVC045 M05/M06 A2961 RMK SLP091=
SPECI
LOCATION
CYBW - CALGARY/SPRINGBANK/AB
DATE - TIME
04 DECEMBER 2016 - 2059 UTC
WIND
350 TRUE @ 7  KNOTS
VISIBILITY
2 1/2 STAT.  MILES
RUNWAY VISUAL RANGE
WEATHER
LIGHT SNOW
CLOUDINESS
BROKEN CLOUDS (5/8 - 7/8) 3500  FT
OVERCAST 4500  FT
TEMP / DEWPOINT
-5 C / -6 C
ALTIMETER
29.61 IN HG
RECENT WEATHER
WIND SHEAR

SPECI CYBW 042051Z AUTO 35007KT 5SM -SN OVC046 M05/M07 A2960 RMK SLP090=
SPECI
LOCATION
CYBW - CALGARY/SPRINGBANK/AB
DATE - TIME
04 DECEMBER 2016 - 2051 UTC
WIND
350 TRUE @ 7  KNOTS
VISIBILITY
5 STAT.  MILES
RUNWAY VISUAL RANGE
WEATHER
LIGHT SNOW
CLOUDINESS
OVERCAST 4600  FT
TEMP / DEWPOINT
-5 C / -7 C
ALTIMETER
29.60 IN HG
RECENT WEATHER
WIND SHEAR

SPECI CYBW 042018Z AUTO 35007KT 6SM -SN BKN043 OVC050 M05/M06 A2960 RMK SLP089=
SPECI
LOCATION
CYBW - CALGARY/SPRINGBANK/AB
DATE - TIME
04 DECEMBER 2016 - 2018 UTC
WIND
350 TRUE @ 7  KNOTS
VISIBILITY
6 STAT.  MILES
RUNWAY VISUAL RANGE
WEATHER
LIGHT SNOW
CLOUDINESS
BROKEN CLOUDS (5/8 - 7/8) 4300  FT
OVERCAST 5000  FT
TEMP / DEWPOINT
-5 C / -6 C
ALTIMETER
29.60 IN HG
RECENT WEATHER
WIND SHEAR

METAR CYBW 042000Z AUTO 01006KT 3SM -SN OVC036 M05/M06 A2960 RMK SLP089=
METAR
LOCATION
CYBW - CALGARY/SPRINGBANK/AB
DATE - TIME
04 DECEMBER 2016 - 2000 UTC
WIND
10 TRUE @ 6  KNOTS
VISIBILITY
3 STAT.  MILES
RUNWAY VISUAL RANGE
WEATHER
LIGHT SNOW
CLOUDINESS
OVERCAST 3600  FT
TEMP / DEWPOINT
-5 C / -6 C
ALTIMETER
29.60 IN HG
RECENT WEATHER
WIND SHEAR

TAF AMD CYBW 042033Z 0420/0505 34008KT P6SM -SN OVC040 TEMPO 0420/0422 1/2SM SN VV006 FM042200 34005KT P6SM FEW025 BKN080 TEMPO 0422/0501 P6SM -SN RMK FCST BASED ON AUTO OBS. NXT FCST BY 050000Z=
AMENDED TAF
LOCATION

CYBW - CALGARY/SPRINGBANK/AB
VALIDITY [UTC]
04 DEC - 2033 to
05 DEC - 0500
 
TIMES
[UTC]
WIND
[DEGREES TRUE]
VISIBILITY
[STAT. MILES]
WEATHER
CLOUDINESS
[FEET AGL]
 
04 DEC - 2000 to
04 DEC - 2200
340 @ 8 KNOTS
6+
LIGHT SNOW
4000 OVERCAST
TEMPORARY CHANGES
04 DEC - 2000 to
04 DEC - 2200
 
1/2
MODERATE SNOW
VERTICAL VISIBILITY 600
 
04 DEC - 2200 to
05 DEC - 0500
340 @ 5 KNOTS
6+
NIL
2500 FEW
8000 BROKEN
TEMPORARY CHANGES
04 DEC - 2200 to
05 DEC - 0100
 
6+
LIGHT SNOW
 
REMARKS
THE FORECAST IS BASED ON AUTOMATIC OBSERVATIONS - THE NEXT FORECAST WILL BE ISSUED BY 0000 UTC ON DAY 05


Your time UTC time
Weather data provided by Environment Canada and NAV CANADA